Terminal Aerodrome Forecast
Issued by NWS Charleston, WV

Current Version | Previous Version | Graphics & Text | Print | Product List | Glossary On
Versions: 1 2 3 4 5 6 7 8 9 10 11 12 13 14 15 16 17 18 19 20 21 22 23 24 25 26 27 28 29
000
FTUS41 KRLX 290500
TAFCRW
TAF
KCRW 290540Z 2906/3006 00000KT P6SM SCT060 BKN080
     FM290700 00000KT 5SM BR SCT060
     FM290900 00000KT 2SM BR SCT060
     FM291000 00000KT 1 1/2SM BR SCT035
      TEMPO 2910/2912 1/2SM FG VV001
     FM291200 00000KT 1SM BR SCT070
     FM291230 00000KT P6SM SCT080
     FM291900 32004KT P6SM SCT045=

USA.gov is the U.S. government's official web portal to all federal, state and local government web resources and services.